Time;durP1;ratioP1;P1;durP2;ratioP2;P2;SDS_P1;SDS_P2;PMS_P1;PMS_P2;Temp;Humidity;BMP_temperature;BMP_pressure;BME280_temperature;BME280_humidity;BME280_pressure;Samples;Min_cycle;Max_cycle;Signal;HPM_P1;HPM_P2
2024/02/07 00:01:14;;;;;;;16.23;2.90;;;6.30;99.90;;;;;;5071376;28;20109;-69
2024/02/07 00:03:40;;;;;;;;;;;6.20;99.90;;;;;;5053996;28;20493;-67
2024/02/07 00:06:05;;;;;;;5.50;1.52;;;6.20;99.90;;;;;;5071193;28;20512;-68
2024/02/07 00:08:31;;;;;;;;;;;6.10;99.90;;;;;;5071516;28;20516;-68
2024/02/07 00:10:57;;;;;;;10.20;2.13;;;6.10;99.90;;;;;;5071090;28;19915;-68
2024/02/07 00:13:23;;;;;;;9.02;2.95;;;6.10;99.90;;;;;;5070992;28;20025;-67
2024/02/07 00:15:49;;;;;;;;;;;6.10;99.90;;;;;;5071644;28;20037;-68
2024/02/07 00:18:14;;;;;;;6.97;1.60;;;6.10;99.90;;;;;;5072492;28;20045;-67
2024/02/07 00:20:40;;;;;;;;;;;6.00;99.90;;;;;;5057070;28;20709;-70
2024/02/07 00:23:07;;;;;;;10.32;1.92;;;6.00;99.90;;;;;;5073698;28;19923;-68
2024/02/07 00:25:34;;;;;;;12.27;1.55;;;6.00;99.90;;;;;;5056217;28;20390;-69
2024/02/07 00:28:00;;;;;;;13.10;1.95;;;6.00;99.90;;;;;;5076692;28;20033;-68
2024/02/07 00:30:25;;;;;;;;;;;5.90;99.90;;;;;;5074670;28;20032;-68
2024/02/07 00:32:51;;;;;;;4.32;1.80;;;5.80;99.90;;;;;;5071239;28;20663;-68
2024/02/07 00:35:16;;;;;;;;;;;5.80;99.90;;;;;;5071569;28;20051;-68
2024/02/07 00:37:42;;;;;;;6.53;1.98;;;5.80;99.90;;;;;;5070695;28;20203;-68
2024/02/07 00:40:09;;;;;;;;;;;5.70;99.90;;;;;;5070939;28;20544;-67
2024/02/07 00:42:36;;;;;;;8.95;2.38;;;5.70;99.90;;;;;;5070323;28;19969;-68
2024/02/07 00:45:03;;;;;;;12.77;2.03;;;5.60;99.90;;;;;;5052314;28;20135;-67
2024/02/07 00:47:28;;;;;;;7.97;1.67;;;5.60;99.90;;;;;;5070468;28;20017;-68
2024/02/07 00:49:54;;;;;;;;;;;5.60;99.90;;;;;;5070989;28;20409;-68
2024/02/07 00:52:21;;;;;;;6.40;1.45;;;5.50;99.90;;;;;;5070758;28;19904;-67
2024/02/07 00:54:47;;;;;;;7.63;1.83;;;5.50;99.90;;;;;;5070488;28;20029;-68
2024/02/07 00:57:12;;;;;;;;;;;5.50;99.90;;;;;;5052963;28;20031;-70
2024/02/07 00:59:38;;;;;;;9.57;1.75;;;5.40;99.90;;;;;;5070472;28;19913;-68
2024/02/07 01:02:04;;;;;;;;;;;5.40;99.90;;;;;;5072496;28;20477;-69
2024/02/07 01:04:29;;;;;;;6.75;1.90;;;5.40;99.90;;;;;;5071465;28;20272;-71
2024/02/07 01:06:55;;;;;;;;;;;5.30;99.90;;;;;;5053168;28;20036;-69
2024/02/07 01:09:21;;;;;;;6.40;1.42;;;5.30;99.90;;;;;;5069972;28;19908;-66
2024/02/07 01:11:47;;;;;;;13.25;1.83;;;5.30;99.90;;;;;;5069871;28;20445;-68
2024/02/07 01:14:13;;;;;;;;;;;5.30;99.90;;;;;;5070306;28;20445;-68
2024/02/07 01:16:38;;;;;;;7.35;1.80;;;5.30;99.90;;;;;;5069806;28;19908;-68
2024/02/07 01:19:04;;;;;;;;;;;5.20;99.90;;;;;;5069788;28;20121;-68
2024/02/07 01:21:30;;;;;;;4.13;1.63;;;5.20;99.90;;;;;;5051682;28;19916;-68
2024/02/07 01:23:55;;;;;;;;;;;5.20;99.90;;;;;;5069728;28;20041;-68
2024/02/07 01:26:21;;;;;;;4.50;1.42;;;5.20;99.90;;;;;;5069421;28;19915;-67
2024/02/07 01:28:47;;;;;;;;;;;5.20;99.90;;;;;;5069919;28;20038;-67
2024/02/07 01:31:13;;;;;;;15.48;1.40;;;5.20;99.90;;;;;;5051299;28;19913;-68
2024/02/07 01:33:38;;;;;;;;;;;5.20;99.90;;;;;;5051736;28;20036;-67
2024/02/07 01:36:06;;;;;;;13.27;2.88;;;5.20;99.90;;;;;;5069284;28;19953;-68
2024/02/07 01:38:32;;;;;;;9.82;1.40;;;5.20;99.90;;;;;;5069319;28;20032;-68
2024/02/07 01:40:57;;;;;;;;;;;5.30;99.90;;;;;;5069484;28;20028;-68
2024/02/07 01:43:28;;;;;;;9.77;1.88;;;5.30;99.90;;;;;;5069209;28;19943;-68
2024/02/07 01:45:55;;;;;;;5.78;1.60;;;5.30;99.90;;;;;;5050925;28;20043;-68
2024/02/07 01:48:22;;;;;;;13.77;2.70;;;5.30;99.90;;;;;;5069232;28;20115;-68
2024/02/07 01:50:49;;;;;;;6.97;1.70;;;5.30;99.90;;;;;;5069010;28;20028;-67
2024/02/07 01:53:15;;;;;;;8.40;1.40;;;5.30;99.90;;;;;;5051142;28;20052;-67
2024/02/07 01:55:41;;;;;;;;;;;5.30;99.90;;;;;;5069459;28;20456;-66
2024/02/07 01:58:07;;;;;;;8.93;1.83;;;5.30;99.90;;;;;;5068856;28;19908;-67
2024/02/07 02:00:34;;;;;;;6.13;1.63;;;5.30;99.90;;;;;;5068780;28;20070;-68
2024/02/07 02:03:01;;;;;;;5.50;1.63;;;5.20;99.90;;;;;;5068945;28;20089;-68
2024/02/07 02:05:27;;;;;;;5.38;1.42;;;5.20;99.90;;;;;;5050761;28;20044;-66
2024/02/07 02:07:53;;;;;;;;;;;5.20;99.90;;;;;;5069268;28;20161;-68
2024/02/07 02:10:19;;;;;;;7.72;2.55;;;5.30;99.90;;;;;;5068388;28;19955;-68
2024/02/07 02:12:45;;;;;;;6.97;1.75;;;5.30;99.90;;;;;;5068880;28;20028;-68
2024/02/07 02:15:11;;;;;;;;;;;5.30;99.90;;;;;;5051378;28;20033;-68
2024/02/07 02:17:37;;;;;;;12.68;2.28;;;5.30;99.90;;;;;;5068766;28;19931;-67
2024/02/07 02:20:04;;;;;;;;;;;5.30;99.90;;;;;;5069175;28;20493;-68
2024/02/07 02:23:07;;;;;;;4.57;1.70;;;5.20;99.90;;;;;;5068348;28;20006;-68
2024/02/07 02:25:57;;;;;;;11.57;2.92;;;5.20;99.90;;;;;;5068580;28;20048;-68
2024/02/07 02:28:41;;;;;;;18.90;2.60;;;5.10;99.90;;;;;;5068586;28;20115;-68
2024/02/07 02:31:12;;;;;;;10.30;3.13;;;5.10;99.90;;;;;;5068623;28;20031;-67
2024/02/07 02:33:39;;;;;;;8.43;2.53;;;5.10;99.90;;;;;;5068627;28;20032;-68
2024/02/07 02:36:05;;;;;;;6.18;2.03;;;5.20;99.90;;;;;;5068550;28;20048;-68
2024/02/07 02:38:37;;;;;;;10.73;2.45;;;5.10;99.90;;;;;;5068182;28;20493;-66
2024/02/07 02:41:07;;;;;;;9.35;1.40;;;5.20;99.90;;;;;;5068836;28;20556;-67
2024/02/07 02:43:32;;;;;;;8.27;1.92;;;5.10;99.90;;;;;;5068339;28;20475;-66
2024/02/07 02:45:58;;;;;;;;;;;5.10;99.90;;;;;;5068572;28;20036;-68
2024/02/07 02:48:24;;;;;;;13.13;2.53;;;5.00;99.90;;;;;;5068476;28;19987;-68
2024/02/07 02:50:49;;;;;;;;;;;5.00;99.90;;;;;;5068854;28;20548;-67
2024/02/07 02:53:18;;;;;;;7.95;2.17;;;4.90;99.90;;;;;;5068271;28;20647;-67
2024/02/07 02:55:45;;;;;;;9.00;1.77;;;4.80;99.90;;;;;;5050194;28;20031;-67
2024/02/07 02:58:11;;;;;;;7.90;2.50;;;4.90;99.90;;;;;;5050296;28;20094;-68
2024/02/07 03:00:37;;;;;;;10.07;2.35;;;4.90;99.90;;;;;;5050286;28;20452;-67
2024/02/07 03:03:02;;;;;;;;;;;4.90;99.90;;;;;;5068717;28;20036;-67
2024/02/07 03:10:36;;;;;;;7.90;1.75;;;4.80;99.90;;;;;;5068184;28;20067;-67
2024/02/07 03:13:02;;;;;;;;;;;4.80;99.90;;;;;;5050601;28;20056;-67
2024/02/07 03:15:28;;;;;;;7.00;1.60;;;4.70;99.90;;;;;;5068141;28;20280;-68
2024/02/07 03:17:53;;;;;;;6.97;1.50;;;4.70;99.90;;;;;;5068154;28;20533;-67
2024/02/07 03:20:19;;;;;;;;;;;4.70;99.90;;;;;;5050572;28;20128;-67
2024/02/07 03:22:46;;;;;;;8.93;1.42;;;4.80;99.90;;;;;;5068960;28;19920;-67
2024/02/07 03:25:16;;;;;;;10.30;1.52;;;4.80;99.90;;;;;;5071843;28;20032;-68
2024/02/07 03:27:46;;;;;;;8.10;1.83;;;4.70;99.90;;;;;;5072022;28;20029;-68
2024/02/07 03:30:21;;;;;;;7.57;1.52;;;4.70;99.90;;;;;;5072026;28;20033;-67
2024/02/07 03:32:47;;;;;;;8.05;1.38;;;4.70;99.90;;;;;;5071898;28;20025;-68
2024/02/07 03:35:14;;;;;;;8.57;1.67;;;4.70;99.90;;;;;;5073301;28;20032;-68
2024/02/07 03:37:40;;;;;;;6.15;1.23;;;4.70;99.90;;;;;;5075957;28;20112;-68
2024/02/07 03:40:06;;;;;;;;;;;4.70;99.90;;;;;;5074123;28;20459;-69
2024/02/07 03:42:32;;;;;;;6.87;1.27;;;4.60;99.90;;;;;;5056438;28;20330;-71
2024/02/07 03:45:03;;;;;;;8.20;1.17;;;4.70;99.90;;;;;;5075580;28;20072;-70
2024/02/07 03:47:32;;;;;;;8.98;1.52;;;4.70;99.90;;;;;;5075079;28;20031;-66
2024/02/07 03:49:58;;;;;;;5.38;1.08;;;4.70;99.90;;;;;;5071672;28;20037;-69
2024/02/07 03:52:23;;;;;;;;;;;4.80;99.90;;;;;;5053976;28;20032;-68
2024/02/07 03:54:52;;;;;;;6.80;1.52;;;4.80;99.90;;;;;;5071185;28;19908;-70
2024/02/07 03:57:21;;;;;;;9.75;1.20;;;4.70;99.90;;;;;;5071230;28;20108;-69
2024/02/07 03:59:47;;;;;;;9.95;2.50;;;4.80;99.90;;;;;;5071122;28;20033;-70
2024/02/07 04:02:22;;;;;;;8.30;1.45;;;4.80;99.90;;;;;;5071197;28;20028;-68
2024/02/07 04:04:49;;;;;;;8.55;1.80;;;4.80;99.90;;;;;;5070989;28;20040;-69
2024/02/07 04:07:16;;;;;;;8.15;1.58;;;4.80;99.90;;;;;;5053016;28;20027;-69
2024/02/07 04:09:43;;;;;;;10.02;2.20;;;4.70;99.90;;;;;;5071180;28;20038;-68
2024/02/07 05:17:21;;;;;;;7.55;2.88;;;4.70;99.90;;;;;;5069869;28;20024;-69
2024/02/07 05:19:48;;;;;;;5.80;1.60;;;4.60;99.90;;;;;;5069596;28;20515;-70
2024/02/07 05:22:16;;;;;;;7.55;1.80;;;4.70;99.90;;;;;;5069443;28;20404;-68
2024/02/07 05:24:43;;;;;;;5.03;1.45;;;4.70;99.90;;;;;;5068771;28;20032;-68
2024/02/07 05:27:12;;;;;;;11.85;1.60;;;4.70;99.90;;;;;;5049814;28;20037;-67
2024/02/07 05:29:38;;;;;;;7.43;1.58;;;4.80;99.90;;;;;;5042154;28;20028;-69
2024/02/07 05:32:05;;;;;;;11.15;3.65;;;4.90;99.90;;;;;;5045294;28;20028;-69
2024/02/07 05:34:31;;;;;;;12.43;2.95;;;5.00;99.90;;;;;;5048043;28;20037;-69
2024/02/07 05:36:56;;;;;;;;;;;5.00;99.90;;;;;;5039956;28;20534;-68
2024/02/07 05:39:23;;;;;;;7.97;1.77;;;5.00;99.90;;;;;;5069246;28;19912;-70
2024/02/07 05:41:49;;;;;;;11.02;2.08;;;5.00;99.90;;;;;;5068548;28;20029;-70
2024/02/07 05:44:15;;;;;;;;;;;5.00;99.90;;;;;;5067208;28;20040;-69
2024/02/07 05:46:41;;;;;;;5.57;1.58;;;4.90;99.90;;;;;;5068345;28;19908;-69
2024/02/07 05:49:06;;;;;;;;;;;4.90;99.90;;;;;;5069570;28;20025;-68
2024/02/07 05:51:32;;;;;;;8.55;1.65;;;4.90;99.90;;;;;;5045038;28;20368;-67
2024/02/07 05:53:57;;;;;;;;;;;4.80;99.90;;;;;;5056913;28;20033;-69
2024/02/07 05:56:23;;;;;;;6.07;1.55;;;4.80;99.90;;;;;;5048974;28;19908;-68
2024/02/07 05:58:51;;;;;;;;;;;4.70;99.90;;;;;;5034996;28;20106;-70
2024/02/07 06:01:17;;;;;;;5.90;2.95;;;4.60;99.90;;;;;;5058002;28;20633;-70
2024/02/07 06:03:50;;;;;;;10.98;3.33;;;4.60;99.90;;;;;;5048970;28;20486;-70
2024/02/07 06:06:29;;;;;;;17.70;3.30;;;4.50;99.90;;;;;;5051733;28;20574;-67
2024/02/07 06:08:57;;;;;;;10.40;3.00;;;4.50;99.90;;;;;;5050118;28;20025;-69
2024/02/07 06:11:28;;;;;;;7.70;2.25;;;4.40;99.90;;;;;;5068834;28;20029;-66
2024/02/07 06:13:54;;;;;;;6.95;2.03;;;4.30;99.90;;;;;;5050735;28;20028;-69
2024/02/07 06:16:20;;;;;;;;;;;4.30;99.90;;;;;;5054380;28;20037;-68
2024/02/07 06:18:46;;;;;;;10.40;2.92;;;4.30;99.90;;;;;;5068948;28;19908;-69
2024/02/07 06:21:11;;;;;;;;;;;4.20;99.90;;;;;;5069206;28;20027;-69
2024/02/07 06:23:37;;;;;;;6.00;2.60;;;4.20;99.90;;;;;;5044236;28;19920;-69
2024/02/07 06:26:02;;;;;;;;;;;4.20;99.90;;;;;;5069000;28;20063;-70
2024/02/07 06:28:28;;;;;;;8.95;3.47;;;4.10;99.90;;;;;;5061933;28;19958;-69
2024/02/07 06:30:53;;;;;;;;;;;4.10;99.90;;;;;;5048820;28;20029;-68
2024/02/07 06:33:19;;;;;;;16.35;5.15;;;4.10;99.90;;;;;;5048083;28;19951;-68
2024/02/07 06:35:45;;;;;;;;;;;4.10;99.90;;;;;;5048650;28;20401;-68
2024/02/07 06:38:10;;;;;;;16.75;5.72;;;4.10;99.90;;;;;;5048231;28;19996;-67
2024/02/07 06:40:36;;;;;;;;;;;4.10;99.90;;;;;;5048682;28;20033;-68
2024/02/07 06:43:03;;;;;;;19.35;7.18;;;4.20;99.90;;;;;;5046881;28;20611;-67
2024/02/07 06:45:29;;;;;;;18.77;7.82;;;4.20;99.90;;;;;;5047884;28;20044;-69
2024/02/07 06:47:56;;;;;;;;;;;4.30;99.90;;;;;;5030609;28;20036;-69
2024/02/07 06:50:23;;;;;;;52.90;32.08;;;4.50;99.90;;;;;;5048390;28;20563;-69
2024/02/07 06:52:49;;;;;;;16.92;7.00;;;4.70;99.90;;;;;;5048273;28;20035;-67
2024/02/07 06:55:16;;;;;;;;;;;5.10;99.90;;;;;;5031088;28;20037;-70
2024/02/07 06:57:41;;;;;;;10.45;3.65;;;5.50;99.90;;;;;;5053536;28;19944;-68
2024/02/07 07:00:07;;;;;;;;;;;5.90;99.90;;;;;;5055599;28;20075;-67
2024/02/07 07:02:33;;;;;;;13.27;4.05;;;6.50;99.90;;;;;;5053321;28;19955;-69
2024/02/07 07:04:58;;;;;;;;;;;7.00;99.90;;;;;;5059593;28;20094;-67
2024/02/07 07:07:24;;;;;;;9.30;2.75;;;7.50;99.90;;;;;;5055973;28;19915;-70
2024/02/07 07:09:49;;;;;;;;;;;8.00;99.90;;;;;;5035808;28;20037;-67
2024/02/07 07:12:16;;;;;;;17.88;4.93;;;8.50;99.90;;;;;;5050929;28;20320;-70
2024/02/07 07:14:42;;;;;;;15.88;4.13;;;9.00;99.90;;;;;;5052142;28;20032;-69
2024/02/07 07:17:08;;;;;;;13.82;3.33;;;9.40;99.90;;;;;;5034233;28;20037;-69
2024/02/07 07:19:34;;;;;;;;;;;9.90;99.60;;;;;;5052555;28;20393;-69
2024/02/07 07:21:59;;;;;;;6.10;2.00;;;10.30;96.50;;;;;;5052021;28;20369;-70
2024/02/07 07:24:25;;;;;;;;;;;10.70;94.90;;;;;;5052156;28;20064;-70
2024/02/07 07:26:50;;;;;;;12.43;2.03;;;10.90;91.90;;;;;;5051874;28;20335;-69
2024/02/07 07:29:17;;;;;;;;;;;11.10;90.30;;;;;;5034326;28;20501;-69
2024/02/07 07:31:42;;;;;;;9.82;2.22;;;11.20;87.20;;;;;;5052355;28;19935;-70
2024/02/07 07:34:08;;;;;;;;;;;11.30;86.80;;;;;;5052205;28;20036;-70
2024/02/07 07:36:34;;;;;;;10.43;2.72;;;11.30;83.30;;;;;;5051693;28;20504;-67
2024/02/07 07:38:59;;;;;;;;;;;11.60;81.70;;;;;;5052071;28;20032;-70
2024/02/07 07:41:25;;;;;;;11.45;2.40;;;11.80;77.50;;;;;;5051489;28;19909;-67
2024/02/07 07:43:52;;;;;;;;;;;12.10;77.00;;;;;;5051933;28;20038;-68
2024/02/07 07:46:17;;;;;;;14.60;2.80;;;12.40;73.60;;;;;;5051427;28;20002;-67
2024/02/07 07:48:43;;;;;;;13.73;3.65;;;12.80;71.20;;;;;;5033407;28;20120;-67
2024/02/07 07:51:10;;;;;;;;;;;13.10;67.50;;;;;;5051785;28;20021;-67
2024/02/07 07:53:36;;;;;;;11.63;3.42;;;13.10;66.10;;;;;;5033332;28;19951;-67
2024/02/07 07:56:01;;;;;;;;;;;13.10;66.00;;;;;;5051574;28;20064;-68
2024/02/07 07:58:27;;;;;;;25.15;6.43;;;13.00;65.20;;;;;;5032945;28;20050;-66
2024/02/07 08:00:53;;;;;;;;;;;12.90;65.40;;;;;;5051819;28;20044;-67
2024/02/07 08:03:18;;;;;;;23.55;7.63;;;12.90;65.90;;;;;;5033138;28;19908;-67
2024/02/07 08:05:44;;;;;;;;;;;13.00;65.90;;;;;;5033527;28;20059;-67
2024/02/07 08:08:10;;;;;;;11.77;3.50;;;13.20;64.10;;;;;;5050172;28;19944;-68
2024/02/07 08:10:35;;;;;;;;;;;13.30;64.20;;;;;;5051284;28;20045;-68
2024/02/07 08:13:02;;;;;;;12.15;4.20;;;13.30;63.00;;;;;;5051099;28;20335;-70
2024/02/07 08:15:27;;;;;;;;;;;13.50;64.10;;;;;;5033501;28;20497;-67
2024/02/07 08:17:53;;;;;;;7.85;3.65;;;13.70;62.10;;;;;;5033127;28;20037;-69
2024/02/07 08:20:22;;;;;;;14.13;4.30;;;13.70;63.10;;;;;;5050980;28;20021;-69
2024/02/07 08:22:48;;;;;;;11.60;3.83;;;13.80;61.80;;;;;;5050899;28;20053;-70
2024/02/07 08:25:14;;;;;;;11.85;4.32;;;13.90;61.10;;;;;;5050663;28;20072;-67
2024/02/07 08:27:40;;;;;;;9.38;4.28;;;13.90;61.10;;;;;;5050678;28;20060;-70
2024/02/07 08:30:06;;;;;;;11.48;3.83;;;13.90;60.40;;;;;;5050711;28;20078;-68
2024/02/07 08:32:32;;;;;;;18.88;4.47;;;13.80;61.40;;;;;;5032765;28;20029;-70
2024/02/07 08:34:58;;;;;;;8.05;4.18;;;13.90;61.10;;;;;;5050653;28;20027;-70
2024/02/07 08:37:26;;;;;;;8.32;3.70;;;13.90;61.00;;;;;;5050454;28;20410;-70
2024/02/07 08:39:55;;;;;;;12.27;4.25;;;14.10;60.50;;;;;;5032520;28;20025;-70
2024/02/07 08:42:20;;;;;;;12.07;3.63;;;14.30;60.60;;;;;;5050579;28;20616;-70
2024/02/07 08:44:46;;;;;;;9.43;3.88;;;14.60;59.40;;;;;;5050338;28;20166;-70
2024/02/07 08:47:12;;;;;;;10.30;3.72;;;14.80;57.70;;;;;;5050381;28;20060;-69
2024/02/07 08:49:37;;;;;;;13.23;4.47;;;14.80;58.10;;;;;;5032347;28;20082;-69
2024/02/07 08:52:03;;;;;;;10.13;4.07;;;15.00;57.90;;;;;;5050287;28;20140;-70
2024/02/07 08:54:32;;;;;;;15.18;4.80;;;15.00;56.60;;;;;;5050340;28;20029;-70
2024/02/07 08:56:57;;;;;;;9.45;4.70;;;15.20;56.30;;;;;;5050376;28;20095;-70
2024/02/07 08:59:23;;;;;;;10.82;4.30;;;15.30;54.10;;;;;;5049716;28;20037;-68
2024/02/07 09:01:49;;;;;;;14.15;3.75;;;15.20;54.70;;;;;;5032063;28;20126;-68
2024/02/07 09:04:14;;;;;;;14.35;5.90;;;15.30;53.90;;;;;;5050043;28;20040;-68
2024/02/07 09:06:40;;;;;;;14.43;5.63;;;15.40;54.20;;;;;;5050052;28;20041;-67
2024/02/07 09:09:05;;;;;;;12.35;5.00;;;15.60;53.80;;;;;;5050016;28;20549;-66
2024/02/07 09:11:31;;;;;;;12.70;5.75;;;15.70;52.60;;;;;;5049968;28;20040;-68
2024/02/07 09:13:57;;;;;;;15.02;5.65;;;16.10;52.00;;;;;;5049818;28;20378;-66
2024/02/07 09:16:22;;;;;;;17.77;5.22;;;16.40;50.30;;;;;;5032078;28;20036;-67
2024/02/07 09:18:48;;;;;;;13.70;4.95;;;16.60;49.40;;;;;;5049761;28;20025;-68
2024/02/07 09:21:17;;;;;;;10.77;5.15;;;16.70;48.50;;;;;;5048384;28;20082;-68
2024/02/07 09:23:43;;;;;;;13.15;6.07;;;16.60;48.10;;;;;;5048207;28;20148;-68
2024/02/07 09:26:09;;;;;;;15.00;6.10;;;16.70;48.10;;;;;;5049552;28;20113;-67
2024/02/07 09:28:34;;;;;;;12.75;5.53;;;16.60;48.40;;;;;;5049455;28;20436;-66
2024/02/07 09:31:00;;;;;;;10.50;6.07;;;17.00;46.10;;;;;;5049352;28;20033;-67
2024/02/07 09:33:26;;;;;;;11.40;5.75;;;17.00;46.30;;;;;;5048954;28;20036;-68
2024/02/07 09:35:51;;;;;;;17.08;6.78;;;16.80;47.10;;;;;;5049208;28;20039;-67
2024/02/07 09:38:21;;;;;;;13.90;5.82;;;17.00;46.40;;;;;;5049434;28;20025;-68
2024/02/07 09:40:50;;;;;;;10.80;5.63;;;16.90;46.70;;;;;;5048053;28;20044;-68
2024/02/07 09:43:17;;;;;;;16.10;6.60;;;17.20;46.20;;;;;;5031392;28;20021;-67
2024/02/07 09:45:45;;;;;;;12.32;4.75;;;17.30;45.40;;;;;;5049007;28;20438;-67
2024/02/07 09:48:21;;;;;;;10.40;4.32;;;17.30;45.30;;;;;;5049072;28;20509;-68
2024/02/07 09:50:52;;;;;;;9.60;4.25;;;17.30;43.70;;;;;;5031176;28;20029;-67
2024/02/07 09:53:20;;;;;;;10.25;3.15;;;16.90;44.00;;;;;;5031298;28;20036;-69
2024/02/07 09:55:50;;;;;;;8.27;2.67;;;16.60;44.80;;;;;;5031065;28;20060;-69
2024/02/07 09:58:18;;;;;;;16.73;2.00;;;16.40;44.60;;;;;;5049024;28;20021;-69
2024/02/07 10:00:44;;;;;;;15.70;2.10;;;16.00;45.20;;;;;;5048861;28;20139;-70
2024/02/07 10:03:13;;;;;;;8.82;2.28;;;15.60;45.70;;;;;;5048970;28;20104;-69
2024/02/07 10:05:45;;;;;;;6.32;1.92;;;15.30;46.60;;;;;;5048832;28;20514;-70
2024/02/07 10:08:11;;;;;;;8.48;2.22;;;15.20;47.50;;;;;;5048864;28;20025;-67
2024/02/07 10:10:37;;;;;;;7.20;2.72;;;15.00;48.30;;;;;;5030908;28;20414;-66
2024/02/07 10:13:04;;;;;;;7.20;1.50;;;14.80;48.50;;;;;;5048817;28;20095;-68
2024/02/07 10:15:30;;;;;;;4.53;1.15;;;14.80;48.50;;;;;;5031124;28;20033;-68
2024/02/07 10:17:56;;;;;;;10.88;1.85;;;14.70;48.10;;;;;;5048878;28;20032;-68
2024/02/07 10:20:23;;;;;;;7.13;1.80;;;14.70;48.60;;;;;;5030990;28;20383;-68
2024/02/07 10:22:49;;;;;;;3.38;0.80;;;14.70;48.90;;;;;;5048736;28;20094;-68
2024/02/07 10:25:16;;;;;;;5.68;1.40;;;14.80;47.80;;;;;;5048438;28;20112;-68
2024/02/07 10:27:43;;;;;;;4.75;0.95;;;14.80;47.50;;;;;;5048602;28;20029;-68
2024/02/07 10:30:09;;;;;;;6.32;1.27;;;14.70;48.00;;;;;;5048517;28;20438;-67
2024/02/07 10:32:36;;;;;;;5.72;1.25;;;14.60;48.10;;;;;;5030498;28;20037;-67
2024/02/07 10:35:03;;;;;;;8.73;1.83;;;14.70;48.50;;;;;;5048628;28;20024;-68
2024/02/07 10:37:39;;;;;;;6.35;2.33;;;14.60;48.90;;;;;;5048553;28;20166;-68
2024/02/07 10:40:05;;;;;;;9.75;1.65;;;14.60;49.00;;;;;;5048592;28;20057;-68
2024/02/07 10:42:31;;;;;;;21.73;2.72;;;14.60;48.20;;;;;;5030510;28;20029;-66
2024/02/07 10:45:03;;;;;;;;;;;14.60;49.40;;;;;;5048794;28;20082;-68
2024/02/07 10:47:29;;;;;;;8.48;2.50;;;14.60;49.60;;;;;;5048285;28;19909;-68
2024/02/07 10:49:54;;;;;;;;;;;14.60;50.60;;;;;;5048847;28;20029;-68
2024/02/07 10:52:20;;;;;;;10.68;3.08;;;14.60;50.20;;;;;;5029870;28;19909;-67
2024/02/07 10:54:46;;;;;;;;;;;14.80;50.50;;;;;;5048573;28;20040;-68
2024/02/07 10:57:13;;;;;;;6.95;2.15;;;14.90;49.80;;;;;;5048315;28;19955;-66
2024/02/07 10:59:40;;;;;;;9.90;2.20;;;15.10;47.50;;;;;;5030466;28;20040;-67
2024/02/07 11:02:16;;;;;;;4.32;2.00;;;15.30;47.60;;;;;;5048201;28;20380;-68
2024/02/07 11:04:45;;;;;;;6.22;2.33;;;15.40;48.00;;;;;;5048088;28;20776;-68
2024/02/07 11:07:14;;;;;;;10.93;2.88;;;15.60;47.30;;;;;;5030279;28;20048;-68
2024/02/07 11:09:43;;;;;;;6.93;2.40;;;15.80;47.40;;;;;;5030267;28;20037;-68
2024/02/07 11:12:14;;;;;;;6.82;2.22;;;15.90;45.40;;;;;;5030162;28;20029;-68
2024/02/07 11:14:47;;;;;;;11.13;2.67;;;16.00;45.70;;;;;;5048238;28;20459;-68
2024/02/07 11:17:16;;;;;;;7.03;2.08;;;16.00;45.40;;;;;;5030205;28;20033;-70
2024/02/07 11:19:43;;;;;;;12.98;2.63;;;16.20;44.90;;;;;;5030226;28;20025;-68
2024/02/07 11:22:13;;;;;;;8.90;2.40;;;16.20;43.60;;;;;;5048124;28;20538;-69
2024/02/07 11:24:41;;;;;;;7.45;2.53;;;16.20;43.80;;;;;;5047551;28;20041;-70
2024/02/07 11:27:10;;;;;;;3.47;1.27;;;16.00;43.50;;;;;;5047826;28;20029;-70
2024/02/07 11:29:36;;;;;;;6.05;1.80;;;15.80;42.50;;;;;;5048223;28;20145;-68
2024/02/07 11:32:03;;;;;;;5.75;1.48;;;15.60;42.90;;;;;;5029934;28;20025;-69
2024/02/07 11:34:31;;;;;;;10.68;1.95;;;15.50;43.30;;;;;;5046447;28;20029;-66
2024/02/07 11:36:57;;;;;;;7.18;1.63;;;15.20;44.00;;;;;;5047817;28;20060;-68
2024/02/07 11:39:22;;;;;;;4.65;1.77;;;15.10;44.80;;;;;;5029706;28;20674;-67
2024/02/07 11:41:48;;;;;;;;;;;15.10;45.90;;;;;;5048314;28;20082;-67
2024/02/07 11:44:17;;;;;;;2.92;0.98;;;14.90;46.00;;;;;;5056573;28;19988;-68
2024/02/07 11:46:50;;;;;;;6.97;1.15;;;14.80;45.50;;;;;;5071405;28;20044;-67
2024/02/07 11:49:18;;;;;;;5.03;1.52;;;14.80;44.40;;;;;;5071448;28;20085;-68
2024/02/07 11:51:43;;;;;;;6.75;1.42;;;14.70;43.80;;;;;;5069809;28;20401;-66
2024/02/07 11:54:09;;;;;;;3.85;0.70;;;14.80;43.20;;;;;;5064845;28;20485;-65
2024/02/07 11:56:35;;;;;;;;;;;14.80;42.90;;;;;;5040096;28;20082;-67
2024/02/07 11:59:01;;;;;;;3.22;0.80;;;14.70;42.80;;;;;;5049978;28;19916;-68
2024/02/07 12:01:27;;;;;;;7.57;0.75;;;14.60;43.00;;;;;;5047509;28;20024;-67
2024/02/07 12:03:56;;;;;;;;;;;14.50;43.00;;;;;;5070908;28;20020;-67
2024/02/07 12:06:22;;;;;;;2.42;0.85;;;14.40;43.80;;;;;;5052331;28;19921;-67
2024/02/07 12:08:47;;;;;;;4.53;1.30;;;14.30;45.30;;;;;;5052716;28;20055;-65
2024/02/07 12:11:13;;;;;;;;;;;14.40;45.50;;;;;;5070870;28;20161;-66
2024/02/07 12:13:38;;;;;;;3.80;0.95;;;14.30;45.60;;;;;;5069627;28;20059;-67
2024/02/07 12:16:05;;;;;;;;;;;14.30;45.40;;;;;;5053295;28;20067;-67
2024/02/07 12:18:31;;;;;;;3.30;0.90;;;14.30;44.60;;;;;;5052637;28;19908;-67
2024/02/07 12:21:01;;;;;;;9.75;1.40;;;14.50;44.90;;;;;;5070762;28;20409;-68
2024/02/07 12:23:29;;;;;;;8.55;1.35;;;14.40;44.80;;;;;;5070694;28;20114;-67
2024/02/07 12:25:59;;;;;;;3.33;0.68;;;14.50;44.60;;;;;;5070754;28;20032;-67
2024/02/07 12:28:28;;;;;;;4.20;0.93;;;14.60;44.30;;;;;;5052674;28;20025;-65
2024/02/07 12:30:57;;;;;;;2.67;0.80;;;14.60;43.90;;;;;;5070672;28;20040;-67
2024/02/07 12:33:24;;;;;;;3.75;1.00;;;14.70;43.00;;;;;;5052873;28;20037;-68
2024/02/07 12:35:56;;;;;;;2.95;0.95;;;14.70;44.00;;;;;;5070591;28;20028;-65
2024/02/07 12:38:22;;;;;;;2.83;0.70;;;14.90;43.50;;;;;;5070531;28;20013;-67
2024/02/07 12:40:53;;;;;;;10.60;1.13;;;14.90;42.80;;;;;;5070440;28;20489;-68
2024/02/07 12:43:25;;;;;;;7.47;0.70;;;14.90;43.00;;;;;;5070487;28;20639;-66
2024/02/07 12:45:52;;;;;;;8.07;1.73;;;14.90;42.00;;;;;;5070365;28;20048;-68
2024/02/07 12:48:18;;;;;;;3.58;0.73;;;15.00;42.20;;;;;;5052150;28;20033;-67
2024/02/07 12:50:44;;;;;;;;;;;15.00;42.70;;;;;;5070902;28;20039;-68
2024/02/07 12:53:10;;;;;;;3.22;1.05;;;15.00;42.90;;;;;;5070443;28;20436;-67
2024/02/07 12:55:36;;;;;;;6.65;1.00;;;15.10;42.30;;;;;;5051969;28;20032;-67
2024/02/07 12:58:03;;;;;;;6.95;2.50;;;15.10;42.80;;;;;;5052314;28;20025;-67
2024/02/07 13:00:30;;;;;;;9.55;2.83;;;15.10;40.90;;;;;;5070259;28;20028;-68
2024/02/07 13:02:55;;;;;;;5.55;1.70;;;15.10;40.90;;;;;;5070130;28;20020;-68
2024/02/07 13:05:21;;;;;;;8.82;1.90;;;15.10;40.70;;;;;;5069913;28;20044;-68
2024/02/07 13:07:49;;;;;;;5.85;1.58;;;15.10;39.80;;;;;;5070114;28;20037;-67
2024/02/07 13:10:14;;;;;;;6.40;0.90;;;15.00;39.70;;;;;;5070006;28;20036;-67
2024/02/07 13:12:41;;;;;;;1.70;0.40;;;14.90;40.30;;;;;;5069856;28;20025;-67
2024/02/07 13:15:07;;;;;;;4.22;0.65;;;14.80;40.60;;;;;;5052060;28;20127;-67
2024/02/07 13:17:35;;;;;;;;;;;14.80;40.40;;;;;;5070208;28;20162;-67
2024/02/07 13:20:02;;;;;;;5.00;0.50;;;14.90;40.80;;;;;;5051790;28;19904;-67
2024/02/07 13:22:29;;;;;;;6.90;0.80;;;14.90;41.20;;;;;;5051557;28;20032;-67
2024/02/07 13:24:55;;;;;;;8.77;1.05;;;14.90;40.80;;;;;;5069509;28;20036;-67
2024/02/07 13:27:21;;;;;;;;;;;15.00;40.80;;;;;;5070000;28;20416;-68
2024/02/07 13:29:46;;;;;;;4.78;0.70;;;15.00;40.30;;;;;;5051658;28;19911;-67
2024/02/07 13:32:13;;;;;;;;;;;15.10;40.10;;;;;;5069966;28;20020;-68
2024/02/07 13:34:41;;;;;;;5.00;0.68;;;15.10;40.30;;;;;;5051687;28;20278;-67
2024/02/07 13:37:07;;;;;;;6.53;0.50;;;15.20;40.30;;;;;;5069725;28;20028;-68
2024/02/07 13:39:32;;;;;;;;;;;15.40;39.50;;;;;;5070090;28;20039;-66
2024/02/07 13:41:58;;;;;;;7.78;4.63;;;15.40;39.40;;;;;;5069276;28;20521;-70
2024/02/07 13:44:24;;;;;;;;;;;15.40;43.10;;;;;;5069750;28;20028;-67
2024/02/07 13:46:50;;;;;;;16.38;8.68;;;15.40;45.60;;;;;;5069285;28;19905;-67
2024/02/07 13:49:15;;;;;;;23.52;8.57;;;15.60;45.70;;;;;;5069040;28;20138;-70
2024/02/07 13:51:41;;;;;;;18.10;8.23;;;15.60;46.30;;;;;;5051524;28;20086;-68
2024/02/07 13:54:07;;;;;;;20.98;8.80;;;15.50;46.70;;;;;;5069096;28;20037;-67
2024/02/07 13:56:33;;;;;;;18.52;9.07;;;15.60;47.10;;;;;;5069035;28;20111;-70
2024/02/07 13:58:59;;;;;;;;;;;15.50;46.90;;;;;;5069522;28;20047;-66
2024/02/07 14:01:25;;;;;;;13.73;8.45;;;15.30;47.40;;;;;;5069069;28;19908;-67
2024/02/07 14:03:52;;;;;;;;;;;15.40;47.00;;;;;;5051268;28;20580;-68
2024/02/07 14:06:17;;;;;;;19.13;8.32;;;15.10;47.30;;;;;;5068135;28;19919;-67
2024/02/07 14:08:43;;;;;;;16.95;8.60;;;15.00;47.10;;;;;;5068939;28;20037;-67
2024/02/07 14:11:09;;;;;;;19.30;8.35;;;14.90;47.70;;;;;;5068648;28;20787;-67
2024/02/07 14:13:34;;;;;;;;;;;14.90;47.20;;;;;;5069125;28;20035;-66
2024/02/07 14:16:00;;;;;;;14.25;6.60;;;14.80;46.70;;;;;;5069043;28;19908;-67